ADDS METAR Data

Data at: 2308 UTC 15 Aug 2018

METAR for:KFOK (Westhampton/Gabreski, NY, US)
Text:KFOK 152253Z 22005KT 10SM CLR 28/21 A2992 RMK AO2 SLP130 T02780211
Temperature: 27.8°C ( 82°F)
Dewpoint: 21.1°C ( 70°F) [RH = 67%]
Pressure (altimeter):29.92 inches Hg (1013.3 mb) [Sea level pressure: 1013.0 mb]
Winds:from the SW (220 degrees) at 6 MPH (5 knots; 2.6 m/s)
Visibility:10 or more sm (16+ km)
Ceiling:at least 12,000 feet AGL
Clouds:sky clear below 12,000 feet AGL